LiveATC.Net - Listen to live air traffic control over the Internet!

Airport/ARTCC Code
Frequency Search
(e.g., 124.400, 128.75)
Site-wide search
 


Browse LiveATC Feeds
Top 50 LiveATC Feeds
LiveATC Feed Map
Bad Weather Areas

LiveATC FAQ
Offer LiveATC feed
Contact LiveATC.net
Press Inquiries

LiveATC on iPhone
LiveATC on Android

Windows Phone
Windows 8/10

LiveATC Mobile
(Mobile browser)

ATC Audio Archives
Interesting Recordings

LiveATC Forums

Home Page
About LiveATC.net
Make a Donation
Terms of Use
Privacy Policy

Canadian Air Freqs

AIRMETs/SIGMETs

FAA Airport Status
Nat'l Airspace Status
Arrival Demand Charts


Server Software By:
Icecast.org
Liquidsoap


Current Potentially Bad Weather Airports
(updated every 30 minutes - sorted alphabetically by ICAO code)



This page lists LiveATC.net airport areas that may be interesting to listen to because of challenging flying (weather) conditions. Challenging weather conditions include low ceilings, limited visibility, high or gusty winds, or thunderstorms.

Updated: Thu Oct 17 13:40:01 UTC 2019
Click on airport name to go to that airport area's feeds.

CYHU Tower #1 Saint-Hubert Airport (Montreal, CA-QC)
cyhuNearest METAR:
CYHU 171300Z AUTO 02027G38KT 3SM RA BR BKN012 OVC017 07/06 A2916 RMK PRESFR SLP876
CYHZ Del/Gnd/Twr/App #1 Halifax International Airport (Halifax, CA-NS)
WX MAP UNAVAILABLENearest METAR:
CYHZ 171300Z 11024G36KT 4SM -SHRA BR OVC008 11/11 A2955 RMK ST8 CVCTV CLD EMBD PRESFR SLP010 DENSITY ALT 600FT
CYQB Ground/Tower Quebec Jean Lesage International Airport (Quebec, CA-QC)
cyqbNearest METAR:
CYQB 171300Z 05022G36KT 10SM -RA OVC060 07/04 A2932 RMK SC8 SLP933
CYUL Approach/Departure Pierre Elliott Trudeau International Airport (Montreal, CA-QC)
cyulNearest METAR:
CYUL 171321Z 02026G35KT 5SM -RA BR FEW009 BKN014 OVC022 07/06 A2917 RMK SF1SF4SC3 SLP882
CYVO Gnd/RDO/Center Val-D'Or Airport (Val-D'Or, CA-QC)
WX MAP UNAVAILABLENearest METAR:
CYVO 171316Z 35012G18KT 1 1/2SM -RA BR OVC006 03/03 A2962 RMK ST8 SLP045
CYYB Toronto Center North Bay Airport (North Bay, CA-ON)
WX MAP UNAVAILABLENearest METAR:
CYYB 171300Z 34011G23KT 8SM -DZ OVC006 04/03 A2959 RMK ST8 SLP034
ENTO Tower/App Sandefjord Airport - Torp (Sandefjord, Norway)
WX MAP UNAVAILABLENearest METAR:
ENTO 171320Z 05007KT 010V080 8000 DZ VV006 07/07 Q1007 TEMPO 3000 RA BR BKN004
ESOW Twr/CTAF/Control Stockholm Vasteras Airport (Stockholm, Sweden)
WX MAP UNAVAILABLENearest METAR:
ESOW 171320Z AUTO 01003KT 330V070 9999 OVC009/// 08/06 Q1010
EYPA Tower Palanga International Airport (Palanga, Lithuania)
WX MAP UNAVAILABLENearest METAR:
EYPA 171320Z 26004KT 220V330 9999 OVC008 12/11 Q1013
EVRA FIC Riga International Airport (Riga, Latvia)
WX MAP UNAVAILABLENearest METAR:
EVRA 171320Z 22006KT 200V270 4300 -DZ BR OVC004 13/13 Q1009 R18/290195 NOSIG
FMEE Tower Roland Garros Airport (Sainte-Marie, Reunion)
WX MAP UNAVAILABLENearest METAR:
FMEE 171300Z AUTO 11019KT 9999 OVC046 23/14 Q1018 TEMPO 12025G35KT
FMEP Info Pierrefonds Airport (Saint-Pierre, Reunion)
WX MAP UNAVAILABLENearest METAR:
FMEP 171300Z AUTO 13023KT CAVOK 24/13 Q1018 BECMG 12025G35KT
KACK Tower Nantucket Memorial Airport (Nantucket, US-MA)
kackNearest METAR:
KACK 171253Z 24030G41KT 10SM FEW033 OVC042 13/08 A2916 RMK AO2 PK WND 24048/1223 SLP876 T01330078 $
ZBW Boston Center (ALB22) General Edward Lawrence Logan International Airport (Boston, US-MA)
kbosNearest METAR:
KBOS 171318Z 23031G39KT 10SM SCT031 BKN060 BKN200 12/04 A2898 RMK AO2 PK WND 22039/1315 T01220044 $
NORCAL Approach (Expo) Auburn Municipal Airport (Auburn, US-CA)
kaunNearest METAR:
KAUN 171315Z AUTO 13004KT 9SM OVC004 12/12 A2989 RMK A01
KBGR Del/Gnd/Twr Bangor International Airport (Bangor, US-ME)
kbgrNearest METAR:
KBGR 171253Z 07012KT 1 1/4SM R15/5500VP6000FT +RA BR FEW007 BKN015 OVC022 12/11 A2905 RMK AO2 PK WND 07029/1218 TWR VIS 1 1/2 SLP836 P0021 T01170111
KBID CTAF Block Island State Airport (Block Island, US-RI)
kbidNearest METAR:
KBID 171256Z AUTO 24026G34KT 10SM OVC033 12/06 A2918 RMK AO2 PK WND 24040/1157 SLP883 T01170056
KBLM/N12/3N6/KMJX Lakewood Airport (Lakewood, US-NJ)
kmjxNearest METAR:
KMJX 170356Z AUTO 29021G34KT 10SM OVC033 12/09 A2931 RMK AO2 PK WND 28035/0310 SLP930 T01170089 PNO $
KBTV Del/Gnd/Twr/App #2 Burlington International Airport (Burlington, US-VT)
kbtvNearest METAR:
KBTV 171322Z 34022G29KT 8SM -RA OVC008 07/06 A2901 RMK AO2 PK WND 34029/1322 CIG 007V012 P0000 T00720056
KBVY Tower #1 Beverly Municipal Airport (Beverly, US-MA)
kbvyNearest METAR:
KBVY 171312Z 23022G37KT 10SM SCT026 OVC037 10/05 A2893 RMK AO2 PK WND 23037/1309 T01000050
KCRQ Tower Mc Clellan-Palomar Airport (Carlsbad, US-CA)
kcrqNearest METAR:
KCRQ 171324Z AUTO 20003KT 3SM BR OVC003 17/16 A2982 RMK AO2 T01670156
KHUL/KPQI/ZBW01/15 Houlton International Airport (Houlton, US-ME)
khulNearest METAR:
KHUL 171253Z AUTO 06021G33KT 4SM RA BR BKN015 BKN020 OVC065 07/05 A2930 RMK AO2 PK WND 06033/1249 PRESFR SLP924 P0005 T00720050
KJYO CTAF/Del/SFRA Leesburg Executive Airport (Leesburg, US-VA)
kjyoNearest METAR:
KJYO 171315Z AUTO 31024G31KT 10SM SCT043 OVC050 11/04 A2966 RMK AO2
KISP (NY Approach) Long Island Mac Arthur Airport (Islip, US-NY)
kispNearest METAR:
KISP 171256Z 26023G30KT 10SM SCT045 BKN055 12/04 A2928 RMK AO2 PK WND 26030/1256 SLP914 T01170044
KJFK Ground #2 John F Kennedy International Airport (New York, US-NY)
kjfkNearest METAR:
KJFK 171251Z 26026G37KT 10SM BKN040 BKN055 12/06 A2933 RMK AO2 PK WND 25037/1243 SLP932 T01170056
KLCI Del/CTAF Laconia Municipal Airport (Laconia, US-NH)
klciNearest METAR:
KLCI 171256Z AUTO 08008KT 5SM -RA BR OVC008 11/11 A2874 RMK AO2 SLP733 P0002 T01110106
KLWM Ground/Tower Lawrence Municipal Airport (Lawrence, US-MA)
klwmNearest METAR:
KLWM 171254Z 22021G31KT 10SM BKN023 OVC029 10/06 A2891 RMK AO2 PK WND 22034/1208 SLP789 T01000061
KHGR Tower Hagerstown Regional Airport-Richard A Henson Field (Hagerstown, US-MD)
khgrNearest METAR:
KHGR 171253Z 29026G32KT 10SM BKN043 BKN070 10/02 A2961 RMK AO2 PK WND 28035/1159 SLP038 T01000022
KMRY Del/Gnd/Twr Monterey Peninsula Airport (Monterey, US-CA)
kmryNearest METAR:
KMRY 171254Z AUTO 33003KT 10SM OVC004 15/13 A2994 RMK AO2 CIG 003V007 SLP149 T01500128
KMYF Del/Gnd/Twr Montgomery Field Airport (San Diego, US-CA)
kmyfNearest METAR:
KMYF 171253Z 00000KT 7SM OVC008 18/15 A2982 RMK AO2 SLP093 T01780150
KNKX Del/Gnd/Twr Miramar Marine Corps Air Station (San Diego, US-CA)
knkxNearest METAR:
KNKX 171255Z 00000KT 6SM HZ OVC008 18/14 A2981 RMK AO2 SLP089 T01830144
KOFF Gnd/Twr/App/ZMP Offutt Air Force Base (Omaha, US-NE)
koffNearest METAR:
KOFF 171256Z 10007KT 10SM CLR 05/03 A3000 RMK AO2A SLP165 RVRNO $
FSS (Central MA) Worcester Regional Airport (Worcester, US-MA)
korhNearest METAR:
KORH 171317Z 24022G31KT 6SM -RA BR BKN016 BKN026 OVC037 06/04 A2902 RMK AO2 PK WND 25034/1300 P0001 T00610044
KPVC CTAF Provincetown Municipal Airport (Provincetown, US-MA)
kpvcNearest METAR:
KPVC 171256Z AUTO 23033G39KT 10SM BKN032 12/07 A2904 RMK AO2 PK WND 22041/1210 SLP833 T01170067 PNO $
KRNH CTAF/Clearance New Richmond Regional Airport (New Richmond, US-WI)
krnhNearest METAR:
KRNH 171315Z AUTO 00000KT 3/4SM BR VV005 00/00 A3004 RMK AO2 T00000000
KSBP App/Dep San Luis County Regional Airport (San Luis Obispo, US-CA)
ksbpNearest METAR:
KSBP 171301Z 13004KT 3/4SM BR VV002 08/07 A2987 RMK AO2 T00780072 $
KSDM Ground/Tower Brown Field Municipal Airport (San Diego, US-CA)
ksdmNearest METAR:
KSDM 171326Z AUTO 00000KT 2 1/2SM BR OVC005 16/14 A2982 RMK AO2 T01560139
KSEE Tower Gillespie Field Airport (San Diego/El Cajon, US-CA)
kseeNearest METAR:
KSEE 171315Z AUTO 00000KT 1/4SM FG OVC006 14/13 A2982 RMK AO2
Bordeaux Control Bordeaux-Merignac Airport (Bordeaux, France)
WX MAP UNAVAILABLENearest METAR:
LFBU 171300Z AUTO 18008KT 140V220 9999 BKN007/// BKN011/// OVC018/// ///CB 16/15 Q1013 TEMPO 4000 -RADZ OVC005
MMTJ Twr/Ramp Tijuana International Airport (Tijuana, Mexico)
mmtjNearest METAR:
MMTJ 171245Z 00000KT 2SM BR OVC003 15/15 A2983 RMK 8/6//
Kachemak Bay CTAF Bootleggers Cove Airport (Homer, US-AK)
WX MAP UNAVAILABLENearest METAR:
PASO 171253Z AUTO 00000KT 10SM OVC008 02/00 A2904 RMK AO2 SLP833 T00220000 TSNO
SABE Gnd/Twr/App Aeroparque Jorge Newbery (Buenos Aires, Argentina)
WX MAP UNAVAILABLENearest METAR:
SABE 171300Z 07010KT 1600 DZ OVC008 16/16 Q1014 TEMPO 3000 -DZRA SCT006 OVC009
SBSN Twr/App/ACC Santarem-Maestro Wilson Fonseca Airport (Santarem, Brazil)
WX MAP UNAVAILABLENearest METAR:
SBSN 171300Z 08005KT 5000 -TSRA FEW015 FEW023CB SCT100 25/24 Q1014
WMKB Radar Butterworth Airport (Penang, Malaysia)
WX MAP UNAVAILABLENearest METAR:
WMKB 171300Z VRB03KT 6000 -TSRA FEW010 FEW017CB SCT024 BKN260 25/24 Q1009 NOSIG
WMSA Del/Gnd/Twr/App Sultan Abdul Aziz Shah Airport (Subang, Malaysia)
WX MAP UNAVAILABLENearest METAR:
WMSA 171300Z 15003KT 120V190 6000 -TSRA FEW005 FEW017CB SCT024 25/25 Q1010 RETSRA